sensor_id;sensor_type;location;lat;lon;timestamp;pressure;altitude;pressure_sealevel;temperature;humidity
34931;BME280;21134;49.646;8.560;2023-01-28T00:01:44;101322.06;;;3.03;97.79
34931;BME280;21134;49.646;8.560;2023-01-28T00:04:11;101320.59;;;2.89;98.93
34931;BME280;21134;49.646;8.560;2023-01-28T00:06:37;101306.28;;;2.90;99.12
34931;BME280;21134;49.646;8.560;2023-01-28T00:09:04;101312.13;;;3.08;97.38
34931;BME280;21134;49.646;8.560;2023-01-28T00:11:31;101311.47;;;2.93;97.92
34931;BME280;21134;49.646;8.560;2023-01-28T00:13:58;101306.91;;;2.84;98.90
34931;BME280;21134;49.646;8.560;2023-01-28T00:16:26;101315.50;;;2.88;99.11
34931;BME280;21134;49.646;8.560;2023-01-28T00:18:53;101315.63;;;2.91;98.16
34931;BME280;21134;49.646;8.560;2023-01-28T00:21:20;101310.84;;;2.97;98.14
34931;BME280;21134;49.646;8.560;2023-01-28T00:23:49;101307.28;;;2.93;98.42
34931;BME280;21134;49.646;8.560;2023-01-28T00:26:17;101305.44;;;2.89;97.79
34931;BME280;21134;49.646;8.560;2023-01-28T00:28:44;101297.94;;;2.91;97.12
34931;BME280;21134;49.646;8.560;2023-01-28T00:31:14;101298.13;;;2.95;97.26
34931;BME280;21134;49.646;8.560;2023-01-28T00:33:41;101299.50;;;2.89;97.28
34931;BME280;21134;49.646;8.560;2023-01-28T00:36:11;101286.94;;;2.90;96.83
34931;BME280;21134;49.646;8.560;2023-01-28T00:38:38;101299.50;;;2.89;96.40
34931;BME280;21134;49.646;8.560;2023-01-28T00:41:08;101293.59;;;2.88;96.40
34931;BME280;21134;49.646;8.560;2023-01-28T00:43:35;101297.31;;;2.77;97.24
34931;BME280;21134;49.646;8.560;2023-01-28T00:46:02;101297.13;;;2.92;96.01
34931;BME280;21134;49.646;8.560;2023-01-28T00:48:29;101291.97;;;2.90;95.47
34931;BME280;21134;49.646;8.560;2023-01-28T00:50:56;101295.25;;;3.07;94.31
34931;BME280;21134;49.646;8.560;2023-01-28T00:53:24;101294.06;;;2.99;94.12
34931;BME280;21134;49.646;8.560;2023-01-28T00:55:51;101287.47;;;3.02;94.09
34931;BME280;21134;49.646;8.560;2023-01-28T00:58:18;101287.69;;;2.88;94.98
34931;BME280;21134;49.646;8.560;2023-01-28T01:00:45;101292.94;;;2.92;94.37
34931;BME280;21134;49.646;8.560;2023-01-28T01:03:11;101297.94;;;2.91;94.43
34931;BME280;21134;49.646;8.560;2023-01-28T01:05:38;101298.84;;;2.73;95.80
34931;BME280;21134;49.646;8.560;2023-01-28T01:08:04;101300.91;;;2.82;95.37
34931;BME280;21134;49.646;8.560;2023-01-28T01:10:32;101296.84;;;2.86;94.39
34931;BME280;21134;49.646;8.560;2023-01-28T01:12:59;101301.25;;;2.70;95.52
34931;BME280;21134;49.646;8.560;2023-01-28T01:15:26;101299.19;;;2.81;95.07
34931;BME280;21134;49.646;8.560;2023-01-28T01:17:52;101302.63;;;2.83;95.22
34931;BME280;21134;49.646;8.560;2023-01-28T01:20:20;101303.31;;;2.79;94.80
34931;BME280;21134;49.646;8.560;2023-01-28T01:22:47;101306.38;;;2.91;94.37
34931;BME280;21134;49.646;8.560;2023-01-28T01:25:15;101310.44;;;2.88;94.48
34931;BME280;21134;49.646;8.560;2023-01-28T01:27:44;101308.22;;;2.95;94.99
34931;BME280;21134;49.646;8.560;2023-01-28T01:30:11;101317.59;;;2.98;94.03
34931;BME280;21134;49.646;8.560;2023-01-28T01:32:38;101313.56;;;2.82;94.16
34931;BME280;21134;49.646;8.560;2023-01-28T01:35:06;101300.47;;;2.91;93.78
34931;BME280;21134;49.646;8.560;2023-01-28T01:37:33;101313.09;;;2.91;93.90
34931;BME280;21134;49.646;8.560;2023-01-28T01:39:59;101323.97;;;2.90;94.21
34931;BME280;21134;49.646;8.560;2023-01-28T01:42:26;101316.09;;;2.82;93.82
34931;BME280;21134;49.646;8.560;2023-01-28T01:44:58;101312.34;;;2.74;94.53
34931;BME280;21134;49.646;8.560;2023-01-28T01:47:29;101319.91;;;2.74;94.60
34931;BME280;21134;49.646;8.560;2023-01-28T01:49:57;101315.47;;;2.68;95.09
34931;BME280;21134;49.646;8.560;2023-01-28T01:52:30;101325.19;;;2.98;94.02
34931;BME280;21134;49.646;8.560;2023-01-28T01:55:00;101323.53;;;2.79;94.04
34931;BME280;21134;49.646;8.560;2023-01-28T01:57:31;101324.34;;;2.78;94.37
34931;BME280;21134;49.646;8.560;2023-01-28T02:00:02;101325.38;;;2.83;94.12
34931;BME280;21134;49.646;8.560;2023-01-28T02:02:34;101325.25;;;2.80;93.72
34931;BME280;21134;49.646;8.560;2023-01-28T02:05:03;101328.16;;;2.70;94.50
34931;BME280;21134;49.646;8.560;2023-01-28T02:07:29;101338.13;;;2.67;94.24
34931;BME280;21134;49.646;8.560;2023-01-28T02:09:56;101333.50;;;2.76;94.05
34931;BME280;21134;49.646;8.560;2023-01-28T02:12:26;101333.69;;;2.80;93.75
34931;BME280;21134;49.646;8.560;2023-01-28T02:14:57;101330.09;;;2.75;93.67
34931;BME280;21134;49.646;8.560;2023-01-28T02:17:27;101331.66;;;2.72;93.63
34931;BME280;21134;49.646;8.560;2023-01-28T02:19:57;101339.66;;;2.63;95.03
34931;BME280;21134;49.646;8.560;2023-01-28T02:22:46;101334.03;;;2.69;94.30
34931;BME280;21134;49.646;8.560;2023-01-28T02:25:33;101347.19;;;2.62;94.29
34931;BME280;21134;49.646;8.560;2023-01-28T02:28:12;101350.47;;;2.78;93.57
34931;BME280;21134;49.646;8.560;2023-01-28T02:30:47;101343.50;;;2.55;95.64
34931;BME280;21134;49.646;8.560;2023-01-28T02:33:25;101346.78;;;2.52;96.55
34931;BME280;21134;49.646;8.560;2023-01-28T02:35:54;101347.25;;;2.63;95.54
34931;BME280;21134;49.646;8.560;2023-01-28T02:38:25;101344.16;;;2.51;97.20
34931;BME280;21134;49.646;8.560;2023-01-28T02:40:59;101346.69;;;2.51;97.01
34931;BME280;21134;49.646;8.560;2023-01-28T02:43:31;101343.72;;;2.60;96.05
34931;BME280;21134;49.646;8.560;2023-01-28T02:45:59;101343.78;;;2.61;96.86
34931;BME280;21134;49.646;8.560;2023-01-28T02:48:46;101337.31;;;2.48;97.91
34931;BME280;21134;49.646;8.560;2023-01-28T02:51:21;101337.41;;;2.69;96.43
34931;BME280;21134;49.646;8.560;2023-01-28T02:53:56;101339.28;;;2.73;96.35
34931;BME280;21134;49.646;8.560;2023-01-28T02:56:29;101327.75;;;2.61;95.82
34931;BME280;21134;49.646;8.560;2023-01-28T02:59:10;101335.19;;;2.58;95.99
34931;BME280;21134;49.646;8.560;2023-01-28T03:01:54;101341.09;;;2.58;96.28
34931;BME280;21134;49.646;8.560;2023-01-28T03:04:27;101343.50;;;2.55;96.49
34931;BME280;21134;49.646;8.560;2023-01-28T03:06:58;101338.91;;;2.46;96.69
34931;BME280;21134;49.646;8.560;2023-01-28T03:09:29;101344.69;;;2.44;96.63
34931;BME280;21134;49.646;8.560;2023-01-28T03:11:57;101349.59;;;2.41;97.27
34931;BME280;21134;49.646;8.560;2023-01-28T03:14:48;101346.78;;;2.35;97.98
34931;BME280;21134;49.646;8.560;2023-01-28T03:17:38;101345.69;;;2.47;97.32
34931;BME280;21134;49.646;8.560;2023-01-28T03:20:27;101344.41;;;2.38;97.85
34931;BME280;21134;49.646;8.560;2023-01-28T03:23:16;101347.63;;;2.53;95.41
34931;BME280;21134;49.646;8.560;2023-01-28T03:26:06;101343.31;;;2.32;96.94
34931;BME280;21134;49.646;8.560;2023-01-28T03:28:53;101345.09;;;2.53;94.91
34931;BME280;21134;49.646;8.560;2023-01-28T03:31:42;101345.69;;;2.47;95.28
34931;BME280;21134;49.646;8.560;2023-01-28T03:34:26;101346.22;;;2.40;96.51
34931;BME280;21134;49.646;8.560;2023-01-28T03:37:11;101353.69;;;2.39;95.87
34931;BME280;21134;49.646;8.560;2023-01-28T03:39:39;101356.75;;;2.31;96.07
34931;BME280;21134;49.646;8.560;2023-01-28T03:42:07;101356.59;;;2.46;95.70
34931;BME280;21134;49.646;8.560;2023-01-28T03:44:34;101369.66;;;2.38;96.07
34931;BME280;21134;49.646;8.560;2023-01-28T03:47:19;101370.31;;;2.33;96.06
34931;BME280;21134;49.646;8.560;2023-01-28T03:49:48;101381.72;;;2.25;96.14
34931;BME280;21134;49.646;8.560;2023-01-28T03:52:16;101378.53;;;2.29;97.00
34931;BME280;21134;49.646;8.560;2023-01-28T03:54:43;101379.66;;;2.36;95.37
34931;BME280;21134;49.646;8.560;2023-01-28T03:57:12;101377.59;;;2.27;95.68
34931;BME280;21134;49.646;8.560;2023-01-28T03:59:38;101378.47;;;2.28;95.86
34931;BME280;21134;49.646;8.560;2023-01-28T04:02:05;101389.56;;;2.31;95.79
34931;BME280;21134;49.646;8.560;2023-01-28T04:04:34;101388.56;;;2.46;94.13
34931;BME280;21134;49.646;8.560;2023-01-28T04:07:00;101386.38;;;2.36;94.60
34931;BME280;21134;49.646;8.560;2023-01-28T04:09:27;101392.66;;;2.44;94.23
34931;BME280;21134;49.646;8.560;2023-01-28T04:11:53;101387.09;;;2.51;93.99
34931;BME280;21134;49.646;8.560;2023-01-28T04:14:20;101387.81;;;2.48;93.83
34931;BME280;21134;49.646;8.560;2023-01-28T04:16:46;101387.63;;;2.44;94.34
34931;BME280;21134;49.646;8.560;2023-01-28T04:19:13;101390.66;;;2.37;94.71
34931;BME280;21134;49.646;8.560;2023-01-28T04:21:41;101384.94;;;2.41;93.88
34931;BME280;21134;49.646;8.560;2023-01-28T04:24:08;101387.75;;;2.47;93.34
34931;BME280;21134;49.646;8.560;2023-01-28T04:26:34;101391.63;;;2.58;92.22
34931;BME280;21134;49.646;8.560;2023-01-28T04:29:01;101393.00;;;2.51;92.66
34931;BME280;21134;49.646;8.560;2023-01-28T04:31:28;101389.91;;;2.39;93.18
34931;BME280;21134;49.646;8.560;2023-01-28T04:33:54;101382.66;;;2.27;93.53
34931;BME280;21134;49.646;8.560;2023-01-28T04:36:21;101385.91;;;2.43;93.51
34931;BME280;21134;49.646;8.560;2023-01-28T04:38:49;101400.63;;;2.33;93.62
34931;BME280;21134;49.646;8.560;2023-01-28T04:41:15;101394.41;;;2.27;93.57
34931;BME280;21134;49.646;8.560;2023-01-28T04:43:42;101398.72;;;2.47;92.65
34931;BME280;21134;49.646;8.560;2023-01-28T04:46:08;101400.16;;;2.42;93.00
34931;BME280;21134;49.646;8.560;2023-01-28T04:48:35;101401.63;;;2.37;92.69
34931;BME280;21134;49.646;8.560;2023-01-28T04:51:01;101403.28;;;2.37;92.42
34931;BME280;21134;49.646;8.560;2023-01-28T04:53:28;101403.59;;;2.43;91.82
34931;BME280;21134;49.646;8.560;2023-01-28T04:55:56;101404.91;;;2.36;93.10
34931;BME280;21134;49.646;8.560;2023-01-28T04:58:23;101397.28;;;2.52;91.47
34931;BME280;21134;49.646;8.560;2023-01-28T05:00:53;101397.56;;;2.59;90.39
34931;BME280;21134;49.646;8.560;2023-01-28T05:03:20;101398.44;;;2.59;90.95
34931;BME280;21134;49.646;8.560;2023-01-28T05:05:46;101395.78;;;2.38;92.29
34931;BME280;21134;49.646;8.560;2023-01-28T05:08:13;101401.09;;;2.44;92.26
34931;BME280;21134;49.646;8.560;2023-01-28T05:10:39;101405.97;;;2.40;92.32
34931;BME280;21134;49.646;8.560;2023-01-28T05:13:07;101396.63;;;2.39;92.17
34931;BME280;21134;49.646;8.560;2023-01-28T05:15:34;101402.06;;;2.28;93.38
34931;BME280;21134;49.646;8.560;2023-01-28T05:18:00;101405.94;;;2.22;93.65
34931;BME280;21134;49.646;8.560;2023-01-28T05:20:27;101409.72;;;2.30;93.30
34931;BME280;21134;49.646;8.560;2023-01-28T05:22:53;101404.59;;;2.46;91.91
34931;BME280;21134;49.646;8.560;2023-01-28T05:25:20;101411.50;;;2.50;91.55
34931;BME280;21134;49.646;8.560;2023-01-28T05:27:48;101406.44;;;2.50;90.69
34931;BME280;21134;49.646;8.560;2023-01-28T05:30:17;101415.13;;;2.38;92.23
34931;BME280;21134;49.646;8.560;2023-01-28T05:32:44;101421.53;;;2.31;92.35
34931;BME280;21134;49.646;8.560;2023-01-28T05:35:10;101417.06;;;2.25;93.55
34931;BME280;21134;49.646;8.560;2023-01-28T05:37:37;101418.34;;;2.53;91.70
34931;BME280;21134;49.646;8.560;2023-01-28T05:40:04;101422.59;;;2.36;92.67
34931;BME280;21134;49.646;8.560;2023-01-28T05:42:31;101419.50;;;2.42;92.14
34931;BME280;21134;49.646;8.560;2023-01-28T05:44:57;101428.53;;;2.37;93.06
34931;BME280;21134;49.646;8.560;2023-01-28T05:47:26;101434.66;;;2.42;93.27
34931;BME280;21134;49.646;8.560;2023-01-28T05:49:52;101440.41;;;2.39;93.63
34931;BME280;21134;49.646;8.560;2023-01-28T05:52:19;101439.78;;;2.43;93.31
34931;BME280;21134;49.646;8.560;2023-01-28T05:54:45;101433.22;;;2.47;92.89
34931;BME280;21134;49.646;8.560;2023-01-28T05:57:12;101440.78;;;2.29;94.25
34931;BME280;21134;49.646;8.560;2023-01-28T05:59:39;101437.66;;;2.17;95.00
34931;BME280;21134;49.646;8.560;2023-01-28T06:02:05;101448.34;;;2.29;93.88
34931;BME280;21134;49.646;8.560;2023-01-28T06:04:33;101446.78;;;2.31;94.31
34931;BME280;21134;49.646;8.560;2023-01-28T06:06:59;101456.47;;;2.40;93.84
34931;BME280;21134;49.646;8.560;2023-01-28T06:09:26;101461.13;;;2.32;94.27
34931;BME280;21134;49.646;8.560;2023-01-28T06:11:52;101462.06;;;2.16;95.40
34931;BME280;21134;49.646;8.560;2023-01-28T06:14:19;101457.81;;;2.15;95.39
34931;BME280;21134;49.646;8.560;2023-01-28T06:16:45;101457.75;;;2.31;94.15
34931;BME280;21134;49.646;8.560;2023-01-28T06:19:12;101466.84;;;2.28;94.58
34931;BME280;21134;49.646;8.560;2023-01-28T06:21:39;101463.00;;;2.18;94.34
34931;BME280;21134;49.646;8.560;2023-01-28T06:24:07;101465.53;;;2.18;94.79
34931;BME280;21134;49.646;8.560;2023-01-28T06:26:34;101467.78;;;2.30;93.90
34931;BME280;21134;49.646;8.560;2023-01-28T06:29:00;101474.97;;;2.22;94.67
34931;BME280;21134;49.646;8.560;2023-01-28T06:31:27;101481.31;;;2.14;95.23
34931;BME280;21134;49.646;8.560;2023-01-28T06:33:53;101478.41;;;2.06;95.51
34931;BME280;21134;49.646;8.560;2023-01-28T06:36:20;101487.94;;;2.12;95.07
34931;BME280;21134;49.646;8.560;2023-01-28T06:38:48;101485.06;;;2.22;94.92
34931;BME280;21134;49.646;8.560;2023-01-28T06:41:14;101488.81;;;2.13;94.70
34931;BME280;21134;49.646;8.560;2023-01-28T06:43:41;101494.25;;;2.20;94.70
34931;BME280;21134;49.646;8.560;2023-01-28T06:46:07;101499.00;;;2.32;93.12
34931;BME280;21134;49.646;8.560;2023-01-28T06:48:34;101505.06;;;2.18;93.96
34931;BME280;21134;49.646;8.560;2023-01-28T06:51:00;101502.03;;;2.25;92.50
34931;BME280;21134;49.646;8.560;2023-01-28T06:53:27;101504.91;;;2.15;93.44
34931;BME280;21134;49.646;8.560;2023-01-28T06:55:54;101511.31;;;2.08;93.57
34931;BME280;21134;49.646;8.560;2023-01-28T06:58:21;101515.66;;;2.28;92.51
34931;BME280;21134;49.646;8.560;2023-01-28T07:00:47;101507.44;;;2.15;92.72
34931;BME280;21134;49.646;8.560;2023-01-28T07:03:14;101511.63;;;2.14;92.07
34931;BME280;21134;49.646;8.560;2023-01-28T07:05:41;101518.75;;;2.23;91.97
34931;BME280;21134;49.646;8.560;2023-01-28T07:08:07;101515.94;;;2.17;92.54
34931;BME280;21134;49.646;8.560;2023-01-28T07:10:34;101511.31;;;2.08;92.76
34931;BME280;21134;49.646;8.560;2023-01-28T07:13:02;101517.53;;;2.15;92.17
34931;BME280;21134;49.646;8.560;2023-01-28T07:15:28;101525.72;;;2.27;91.32
34931;BME280;21134;49.646;8.560;2023-01-28T07:17:55;101520.66;;;2.10;92.89
34931;BME280;21134;49.646;8.560;2023-01-28T07:20:21;101521.38;;;2.24;91.91
34931;BME280;21134;49.646;8.560;2023-01-28T07:22:48;101520.91;;;2.15;91.84
34931;BME280;21134;49.646;8.560;2023-01-28T07:25:15;101526.22;;;2.38;90.94
34931;BME280;21134;49.646;8.560;2023-01-28T07:27:46;101521.81;;;2.33;90.67
34931;BME280;21134;49.646;8.560;2023-01-28T07:30:15;101522.88;;;2.21;91.01
34931;BME280;21134;49.646;8.560;2023-01-28T07:32:43;101520.75;;;2.12;91.79
34931;BME280;21134;49.646;8.560;2023-01-28T07:35:10;101516.16;;;2.21;90.89
34931;BME280;21134;49.646;8.560;2023-01-28T07:37:36;101519.25;;;2.16;91.29
34931;BME280;21134;49.646;8.560;2023-01-28T07:40:04;101519.19;;;2.14;91.33
34931;BME280;21134;49.646;8.560;2023-01-28T07:42:30;101523.84;;;2.06;91.39
34931;BME280;21134;49.646;8.560;2023-01-28T07:44:57;101520.06;;;2.15;91.04
34931;BME280;21134;49.646;8.560;2023-01-28T07:47:25;101522.28;;;2.08;91.75
34931;BME280;21134;49.646;8.560;2023-01-28T07:49:51;101522.34;;;2.10;91.88
34931;BME280;21134;49.646;8.560;2023-01-28T07:52:18;101527.13;;;2.22;91.15
34931;BME280;21134;49.646;8.560;2023-01-28T07:54:44;101529.88;;;2.26;90.25
34931;BME280;21134;49.646;8.560;2023-01-28T07:57:11;101530.72;;;2.43;89.77
34931;BME280;21134;49.646;8.560;2023-01-28T07:59:37;101531.22;;;2.54;88.55
34931;BME280;21134;49.646;8.560;2023-01-28T08:02:04;101531.94;;;2.51;88.21
34931;BME280;21134;49.646;8.560;2023-01-28T08:04:32;101532.94;;;2.37;89.55
34931;BME280;21134;49.646;8.560;2023-01-28T08:06:58;101536.38;;;2.39;89.22
34931;BME280;21134;49.646;8.560;2023-01-28T08:09:25;101541.22;;;2.35;89.75
34931;BME280;21134;49.646;8.560;2023-01-28T08:11:51;101543.91;;;2.38;89.88
34931;BME280;21134;49.646;8.560;2023-01-28T08:14:18;101551.69;;;2.42;89.04
34931;BME280;21134;49.646;8.560;2023-01-28T08:16:45;101547.75;;;2.47;88.51
34931;BME280;21134;49.646;8.560;2023-01-28T08:19:12;101547.75;;;2.47;88.33
34931;BME280;21134;49.646;8.560;2023-01-28T08:21:40;101554.16;;;2.41;89.28
34931;BME280;21134;49.646;8.560;2023-01-28T08:24:06;101551.47;;;2.38;89.83
34931;BME280;21134;49.646;8.560;2023-01-28T08:26:33;101555.97;;;2.61;87.87
34931;BME280;21134;49.646;8.560;2023-01-28T08:28:59;101556.13;;;2.64;87.46
34931;BME280;21134;49.646;8.560;2023-01-28T08:31:26;101559.03;;;2.72;87.16
34931;BME280;21134;49.646;8.560;2023-01-28T08:33:53;101560.97;;;2.60;87.56
34931;BME280;21134;49.646;8.560;2023-01-28T08:36:19;101559.81;;;2.53;88.61
34931;BME280;21134;49.646;8.560;2023-01-28T08:38:50;101565.38;;;2.46;89.03
34931;BME280;21134;49.646;8.560;2023-01-28T08:41:18;101561.50;;;2.70;87.19
34931;BME280;21134;49.646;8.560;2023-01-28T08:43:46;101559.25;;;2.76;86.98
34931;BME280;21134;49.646;8.560;2023-01-28T08:46:12;101561.84;;;2.60;87.66
34931;BME280;21134;49.646;8.560;2023-01-28T08:48:39;101558.91;;;2.69;86.58
34931;BME280;21134;49.646;8.560;2023-01-28T08:51:05;101560.97;;;2.77;86.19
34931;BME280;21134;49.646;8.560;2023-01-28T08:53:31;101553.13;;;2.89;85.80
34931;BME280;21134;49.646;8.560;2023-01-28T08:55:59;101553.56;;;2.98;85.20
34931;BME280;21134;49.646;8.560;2023-01-28T08:58:26;101547.88;;;2.85;86.13
34931;BME280;21134;49.646;8.560;2023-01-28T09:00:52;101550.53;;;2.88;86.44
34931;BME280;21134;49.646;8.560;2023-01-28T09:03:19;101560.94;;;2.94;85.58
34931;BME280;21134;49.646;8.560;2023-01-28T09:05:46;101558.13;;;2.88;86.09
34931;BME280;21134;49.646;8.560;2023-01-28T09:08:14;101560.47;;;3.02;84.76
34931;BME280;21134;49.646;8.560;2023-01-28T09:10:41;101554.00;;;3.08;84.70
34931;BME280;21134;49.646;8.560;2023-01-28T09:13:10;101564.00;;;3.06;84.63
34931;BME280;21134;49.646;8.560;2023-01-28T09:15:37;101564.81;;;3.05;84.44
34931;BME280;21134;49.646;8.560;2023-01-28T09:18:04;101557.81;;;3.17;82.79
34931;BME280;21134;49.646;8.560;2023-01-28T09:20:30;101568.66;;;2.97;83.50
34931;BME280;21134;49.646;8.560;2023-01-28T09:22:57;101569.16;;;3.08;83.91
34931;BME280;21134;49.646;8.560;2023-01-28T09:25:24;101571.06;;;2.94;84.62
34931;BME280;21134;49.646;8.560;2023-01-28T09:27:50;101570.69;;;3.04;83.74
34931;BME280;21134;49.646;8.560;2023-01-28T09:30:18;101580.09;;;3.07;82.56
34931;BME280;21134;49.646;8.560;2023-01-28T09:32:48;101587.44;;;3.02;83.22
34931;BME280;21134;49.646;8.560;2023-01-28T09:35:15;101588.81;;;2.95;84.02
34931;BME280;21134;49.646;8.560;2023-01-28T09:37:43;101590.25;;;3.08;83.20
34931;BME280;21134;49.646;8.560;2023-01-28T09:40:13;101590.88;;;3.22;81.67
34931;BME280;21134;49.646;8.560;2023-01-28T09:43:02;101593.94;;;3.15;82.04
34931;BME280;21134;49.646;8.560;2023-01-28T09:45:36;101598.53;;;3.06;81.89
34931;BME280;21134;49.646;8.560;2023-01-28T09:48:07;101594.97;;;3.00;82.71
34931;BME280;21134;49.646;8.560;2023-01-28T09:50:39;101599.22;;;3.19;82.04
34931;BME280;21134;49.646;8.560;2023-01-28T09:53:12;101599.56;;;3.27;81.05
34931;BME280;21134;49.646;8.560;2023-01-28T09:55:45;101591.53;;;3.18;82.98
34931;BME280;21134;49.646;8.560;2023-01-28T09:58:14;101598.56;;;3.23;82.00
34931;BME280;21134;49.646;8.560;2023-01-28T10:00:51;101594.06;;;3.18;81.80
34931;BME280;21134;49.646;8.560;2023-01-28T10:03:36;101602.16;;;3.29;82.29
34931;BME280;21134;49.646;8.560;2023-01-28T10:06:19;101609.16;;;3.34;80.30
34931;BME280;21134;49.646;8.560;2023-01-28T10:09:03;101602.09;;;3.45;79.49
34931;BME280;21134;49.646;8.560;2023-01-28T10:11:42;101604.25;;;3.37;80.04
34931;BME280;21134;49.646;8.560;2023-01-28T10:14:18;101610.81;;;3.34;79.85
34931;BME280;21134;49.646;8.560;2023-01-28T10:16:56;101604.09;;;3.34;80.24
34931;BME280;21134;49.646;8.560;2023-01-28T10:19:27;101607.72;;;3.39;81.05
34931;BME280;21134;49.646;8.560;2023-01-28T10:21:59;101600.28;;;3.24;81.16
34931;BME280;21134;49.646;8.560;2023-01-28T10:24:30;101609.69;;;3.45;79.93
34931;BME280;21134;49.646;8.560;2023-01-28T10:26:59;101604.09;;;3.52;78.10
34931;BME280;21134;49.646;8.560;2023-01-28T10:29:28;101606.88;;;3.39;78.34
34931;BME280;21134;49.646;8.560;2023-01-28T10:32:00;101611.97;;;3.40;78.37
34931;BME280;21134;49.646;8.560;2023-01-28T10:34:28;101608.38;;;3.35;79.52
34931;BME280;21134;49.646;8.560;2023-01-28T10:36:56;101607.16;;;3.45;79.51
34931;BME280;21134;49.646;8.560;2023-01-28T10:39:24;101618.59;;;3.56;77.68
34931;BME280;21134;49.646;8.560;2023-01-28T10:41:51;101615.00;;;3.51;78.38
34931;BME280;21134;49.646;8.560;2023-01-28T10:44:29;101614.59;;;3.42;78.97
34931;BME280;21134;49.646;8.560;2023-01-28T10:47:01;101617.97;;;3.42;77.73
34931;BME280;21134;49.646;8.560;2023-01-28T10:49:30;101620.19;;;3.54;78.44
34931;BME280;21134;49.646;8.560;2023-01-28T10:52:10;101623.47;;;3.52;78.07
34931;BME280;21134;49.646;8.560;2023-01-28T10:54:36;101614.88;;;3.48;77.33
34931;BME280;21134;49.646;8.560;2023-01-28T10:57:07;101621.94;;;3.55;77.14
34931;BME280;21134;49.646;8.560;2023-01-28T10:59:37;101616.03;;;3.37;78.20
34931;BME280;21134;49.646;8.560;2023-01-28T11:02:22;101621.09;;;3.37;78.43
34931;BME280;21134;49.646;8.560;2023-01-28T11:05:00;101622.72;;;3.54;77.78
34931;BME280;21134;49.646;8.560;2023-01-28T11:07:27;101625.47;;;3.59;77.48
34931;BME280;21134;49.646;8.560;2023-01-28T11:09:53;101623.97;;;3.44;78.06
34931;BME280;21134;49.646;8.560;2023-01-28T11:12:21;101625.19;;;3.53;77.88
34931;BME280;21134;49.646;8.560;2023-01-28T11:14:52;101619.22;;;3.70;76.76
34931;BME280;21134;49.646;8.560;2023-01-28T11:17:21;101623.69;;;3.76;76.39
34931;BME280;21134;49.646;8.560;2023-01-28T11:19:50;101620.63;;;3.83;75.27
34931;BME280;21134;49.646;8.560;2023-01-28T11:22:23;101630.50;;;3.77;75.09
34931;BME280;21134;49.646;8.560;2023-01-28T11:24:53;101626.66;;;3.67;76.62
34931;BME280;21134;49.646;8.560;2023-01-28T11:27:25;101635.44;;;3.73;76.35
34931;BME280;21134;49.646;8.560;2023-01-28T11:29:54;101629.91;;;3.82;74.81
34931;BME280;21134;49.646;8.560;2023-01-28T11:32:24;101631.19;;;3.55;75.03
34931;BME280;21134;49.646;8.560;2023-01-28T11:34:53;101629.53;;;3.55;76.30
34931;BME280;21134;49.646;8.560;2023-01-28T11:37:23;101622.84;;;3.57;76.36
34931;BME280;21134;49.646;8.560;2023-01-28T11:40:00;101610.78;;;3.89;74.32
34931;BME280;21134;49.646;8.560;2023-01-28T11:42:26;101616.22;;;3.59;75.45
34931;BME280;21134;49.646;8.560;2023-01-28T11:44:53;101613.53;;;3.74;76.14
34931;BME280;21134;49.646;8.560;2023-01-28T11:47:38;101611.13;;;3.77;75.96
34931;BME280;21134;49.646;8.560;2023-01-28T11:50:21;101606.69;;;3.73;75.51
34931;BME280;21134;49.646;8.560;2023-01-28T11:52:57;101603.88;;;3.85;74.98
34931;BME280;21134;49.646;8.560;2023-01-28T11:55:37;101612.91;;;3.80;74.61
34931;BME280;21134;49.646;8.560;2023-01-28T11:58:16;101599.34;;;3.78;74.31
34931;BME280;21134;49.646;8.560;2023-01-28T12:00:56;101606.50;;;3.68;72.72
34931;BME280;21134;49.646;8.560;2023-01-28T12:03:40;101601.50;;;3.70;72.38
34931;BME280;21134;49.646;8.560;2023-01-28T12:06:37;101598.19;;;3.71;72.81
34931;BME280;21134;49.646;8.560;2023-01-28T12:09:12;101601.72;;;3.75;72.67
34931;BME280;21134;49.646;8.560;2023-01-28T12:11:50;101594.53;;;3.84;71.64
34931;BME280;21134;49.646;8.560;2023-01-28T12:15:07;101590.78;;;3.76;73.34
34931;BME280;21134;49.646;8.560;2023-01-28T12:17:45;101589.59;;;3.67;72.91
34931;BME280;21134;49.646;8.560;2023-01-28T12:20:22;101598.34;;;3.74;73.00
34931;BME280;21134;49.646;8.560;2023-01-28T12:23:19;101591.66;;;3.76;72.77
34931;BME280;21134;49.646;8.560;2023-01-28T12:26:05;101591.06;;;3.62;72.10
34931;BME280;21134;49.646;8.560;2023-01-28T12:28:43;101594.38;;;3.61;71.75
34931;BME280;21134;49.646;8.560;2023-01-28T12:31:27;101586.59;;;3.76;71.05
34931;BME280;21134;49.646;8.560;2023-01-28T12:34:12;101586.06;;;3.64;72.42
34931;BME280;21134;49.646;8.560;2023-01-28T12:36:51;101584.91;;;3.57;73.04
34931;BME280;21134;49.646;8.560;2023-01-28T12:39:30;101581.00;;;3.64;73.36
34931;BME280;21134;49.646;8.560;2023-01-28T12:42:04;101575.97;;;3.83;72.17
34931;BME280;21134;49.646;8.560;2023-01-28T12:44:38;101572.41;;;3.80;70.84
34931;BME280;21134;49.646;8.560;2023-01-28T12:47:08;101573.47;;;3.65;71.82
34931;BME280;21134;49.646;8.560;2023-01-28T12:49:39;101572.81;;;3.69;71.65
34931;BME280;21134;49.646;8.560;2023-01-28T12:52:12;101573.53;;;3.67;72.51
34931;BME280;21134;49.646;8.560;2023-01-28T12:54:52;101583.16;;;3.74;72.53
34931;BME280;21134;49.646;8.560;2023-01-28T12:57:23;101586.66;;;3.58;73.29
34931;BME280;21134;49.646;8.560;2023-01-28T12:59:53;101582.59;;;3.62;73.38
34931;BME280;21134;49.646;8.560;2023-01-28T13:02:25;101578.41;;;3.62;73.75
34931;BME280;21134;49.646;8.560;2023-01-28T13:05:01;101573.91;;;3.57;73.77
34931;BME280;21134;49.646;8.560;2023-01-28T13:07:35;101581.22;;;3.50;73.83
34931;BME280;21134;49.646;8.560;2023-01-28T13:10:11;101580.50;;;3.53;74.02
34931;BME280;21134;49.646;8.560;2023-01-28T13:12:40;101575.00;;;3.62;73.54
34931;BME280;21134;49.646;8.560;2023-01-28T13:15:11;101577.66;;;3.45;73.50
34931;BME280;21134;49.646;8.560;2023-01-28T13:17:39;101584.44;;;3.46;73.70